createdAt,value
2023-03-22T00:00:44.535Z,3.76
2023-03-22T00:03:12.238Z,3.99
2023-03-22T00:05:39.620Z,4.00
2023-03-22T00:08:06.454Z,3.99
2023-03-22T00:10:33.104Z,3.67
2023-03-22T00:12:59.830Z,3.39
2023-03-22T00:15:26.565Z,3.29
2023-03-22T00:17:53.951Z,3.20
2023-03-22T00:20:20.917Z,3.48
2023-03-22T00:22:47.645Z,3.61
2023-03-22T00:25:14.147Z,3.38
2023-03-22T00:27:40.824Z,3.23
2023-03-22T00:30:07.727Z,3.57
2023-03-22T00:32:36.513Z,4.01
2023-03-22T00:35:03.266Z,4.48
2023-03-22T00:37:30.698Z,4.09
2023-03-22T00:39:58.645Z,3.96
2023-03-22T00:42:25.406Z,3.98
2023-03-22T00:44:52.014Z,3.62
2023-03-22T00:47:19.795Z,5.63
2023-03-22T00:49:46.350Z,6.75
2023-03-22T00:52:15.275Z,5.96
2023-03-22T00:54:41.831Z,6.79
2023-03-22T00:57:08.664Z,5.49
2023-03-22T00:59:35.262Z,3.70
2023-03-22T01:02:04.323Z,3.34
2023-03-22T01:04:31.330Z,3.61
2023-03-22T01:07:02.057Z,3.59
2023-03-22T01:09:31.058Z,3.66
2023-03-22T01:11:58.576Z,3.73
2023-03-22T01:14:27.409Z,3.47
2023-03-22T01:16:56.432Z,3.93
2023-03-22T01:19:23.236Z,3.55
2023-03-22T01:21:50.064Z,3.83
2023-03-22T01:24:19.300Z,3.82
2023-03-22T01:29:18.909Z,3.48
2023-03-22T01:31:46.404Z,3.60
2023-03-22T01:34:13.332Z,3.41
2023-03-22T01:36:40.069Z,3.20
2023-03-22T01:39:06.645Z,3.53
2023-03-22T01:41:33.327Z,3.02
2023-03-22T01:44:03.275Z,2.96
2023-03-22T01:46:29.781Z,2.90
2023-03-22T01:48:56.413Z,2.78
2023-03-22T01:51:23.082Z,2.94
2023-03-22T01:53:49.684Z,3.04
2023-03-22T01:56:16.152Z,3.15
2023-03-22T01:58:45.010Z,3.33
2023-03-22T02:04:01.390Z,3.19
2023-03-22T02:06:27.987Z,3.31
2023-03-22T02:12:13.292Z,3.18
2023-03-22T02:14:39.884Z,2.98
2023-03-22T02:26:16.055Z,3.07
2023-03-22T02:28:42.679Z,3.07
2023-03-22T02:31:11.750Z,3.04
2023-03-22T02:33:41.194Z,2.89
2023-03-22T02:36:11.334Z,2.78
2023-03-22T02:38:37.992Z,3.12
2023-03-22T02:41:06.945Z,3.02
2023-03-22T02:43:33.748Z,2.59
2023-03-22T02:46:01.149Z,3.12
2023-03-22T02:48:29.523Z,3.24
2023-03-22T02:50:58.514Z,3.00
2023-03-22T02:53:25.216Z,3.30
2023-03-22T02:55:51.914Z,3.49
2023-03-22T02:58:20.345Z,3.32
2023-03-22T03:00:46.893Z,3.45
2023-03-22T03:03:13.444Z,3.69
2023-03-22T03:05:40.007Z,3.43
2023-03-22T03:08:06.660Z,3.23
2023-03-22T03:10:33.245Z,3.27
2023-03-22T03:13:00.145Z,3.39
2023-03-22T03:15:29.030Z,3.63
2023-03-22T03:17:55.632Z,3.78
2023-03-22T03:20:22.424Z,3.91
2023-03-22T03:22:49.753Z,3.57
2023-03-22T03:25:17.266Z,3.79
2023-03-22T03:27:46.271Z,3.67
2023-03-22T03:30:14.128Z,3.37
2023-03-22T03:32:40.710Z,3.38
2023-03-22T03:35:07.393Z,3.33
2023-03-22T03:37:34.160Z,3.24
2023-03-22T03:40:00.986Z,2.87
2023-03-22T03:42:29.736Z,2.96
2023-03-22T03:44:56.552Z,2.82
2023-03-22T03:47:26.382Z,3.02
2023-03-22T03:49:52.931Z,3.08
2023-03-22T03:52:19.875Z,3.53
2023-03-22T03:54:46.816Z,3.09
2023-03-22T03:57:13.632Z,3.13
2023-03-22T03:59:40.227Z,2.93
2023-03-22T04:02:15.290Z,2.83
2023-03-22T04:04:42.290Z,2.58
2023-03-22T04:07:09.690Z,3.08
2023-03-22T04:09:36.317Z,2.80
2023-03-22T04:12:03.196Z,2.74
2023-03-22T04:14:29.924Z,2.58
2023-03-22T04:16:56.696Z,2.83
2023-03-22T04:19:23.597Z,2.69
2023-03-22T04:21:50.189Z,2.60
2023-03-22T04:24:16.970Z,2.66
2023-03-22T04:26:44.004Z,2.38
2023-03-22T04:29:11.573Z,2.63
2023-03-22T04:31:38.316Z,2.61
2023-03-22T04:34:05.169Z,2.73
2023-03-22T04:36:32.047Z,2.45
2023-03-22T04:38:58.684Z,2.79
2023-03-22T04:41:28.584Z,2.68
2023-03-22T04:43:59.028Z,2.40
2023-03-22T04:46:25.796Z,2.81
2023-03-22T04:48:52.658Z,2.92
2023-03-22T04:51:19.254Z,2.73
2023-03-22T04:53:46.077Z,2.81
2023-03-22T04:56:15.017Z,2.89
2023-03-22T04:58:43.794Z,2.78
2023-03-22T05:01:10.501Z,2.81
2023-03-22T05:03:37.099Z,2.98
2023-03-22T05:06:03.933Z,2.88
2023-03-22T05:08:30.519Z,3.29
2023-03-22T05:10:57.145Z,3.18
2023-03-22T05:13:23.666Z,3.03
2023-03-22T05:15:52.068Z,3.32
2023-03-22T05:18:18.886Z,2.90
2023-03-22T05:20:45.741Z,3.09
2023-03-22T05:23:14.469Z,2.99
2023-03-22T05:25:43.608Z,3.14
2023-03-22T05:28:12.184Z,3.26
2023-03-22T05:30:39.230Z,3.11
2023-03-22T05:33:06.059Z,3.41
2023-03-22T05:35:35.064Z,3.73
2023-03-22T05:38:01.969Z,3.47
2023-03-22T05:40:28.845Z,3.44
2023-03-22T05:42:57.906Z,3.34
2023-03-22T05:45:24.533Z,3.25
2023-03-22T05:47:53.982Z,3.46
2023-03-22T05:50:20.653Z,3.38
2023-03-22T05:52:47.943Z,3.45
2023-03-22T05:55:14.828Z,3.13
2023-03-22T05:57:44.139Z,3.49
2023-03-22T06:00:13.444Z,3.54
2023-03-22T06:02:40.398Z,3.25
2023-03-22T06:05:07.514Z,3.65
2023-03-22T06:07:34.025Z,3.38
2023-03-22T06:10:00.998Z,3.46
2023-03-22T06:12:30.075Z,3.46
2023-03-22T06:14:59.048Z,3.38
2023-03-22T06:17:25.898Z,3.46
2023-03-22T06:19:53.375Z,3.51
2023-03-22T06:22:19.968Z,3.65
2023-03-22T06:24:48.975Z,3.64
2023-03-22T06:27:16.939Z,3.58
2023-03-22T06:29:44.382Z,3.77
2023-03-22T06:32:15.642Z,3.95
2023-03-22T06:34:42.370Z,3.85
2023-03-22T06:37:10.083Z,3.68
2023-03-22T06:39:36.930Z,3.62
2023-03-22T06:42:05.958Z,3.66
2023-03-22T06:44:32.570Z,4.40
2023-03-22T06:46:59.692Z,4.05
2023-03-22T06:49:27.217Z,4.47
2023-03-22T06:51:54.064Z,4.65
2023-03-22T06:54:21.528Z,4.59
2023-03-22T06:56:48.355Z,4.57
2023-03-22T06:59:17.457Z,4.29
2023-03-22T07:01:44.528Z,4.54
2023-03-22T07:04:11.758Z,4.66
2023-03-22T07:06:39.687Z,4.47
2023-03-22T07:09:06.150Z,4.17
2023-03-22T07:11:36.476Z,3.88
2023-03-22T07:14:03.131Z,3.68
2023-03-22T07:16:29.970Z,3.82
2023-03-22T07:18:56.859Z,3.54
2023-03-22T07:21:23.928Z,3.98
2023-03-22T07:23:50.582Z,3.89
2023-03-22T07:26:17.537Z,3.55
2023-03-22T07:28:44.455Z,3.68
2023-03-22T07:31:18.234Z,3.70
2023-03-22T07:33:47.288Z,3.98
2023-03-22T07:36:13.923Z,3.97
2023-03-22T07:38:40.750Z,4.98
2023-03-22T07:41:07.334Z,4.59
2023-03-22T07:43:47.312Z,4.35
2023-03-22T07:46:20.187Z,3.44
2023-03-22T07:48:48.113Z,3.25
2023-03-22T07:51:15.020Z,3.24
2023-03-22T07:53:41.583Z,4.06
2023-03-22T07:56:10.645Z,4.61
2023-03-22T07:58:37.277Z,4.19
2023-03-22T08:01:05.891Z,3.92
2023-03-22T08:03:32.699Z,3.63
2023-03-22T08:05:59.443Z,3.60
2023-03-22T08:08:26.168Z,3.69
2023-03-22T08:10:55.246Z,4.39
2023-03-22T08:13:22.150Z,4.37
2023-03-22T08:15:48.997Z,5.03
2023-03-22T08:18:15.906Z,4.30
2023-03-22T08:20:42.772Z,4.55
2023-03-22T08:23:09.702Z,4.44
2023-03-22T08:25:38.358Z,4.67
2023-03-22T08:28:06.900Z,4.37
2023-03-22T08:30:33.774Z,4.87
2023-03-22T08:33:00.686Z,4.76
2023-03-22T08:35:28.178Z,4.20
2023-03-22T08:37:55.605Z,4.63
2023-03-22T08:40:22.615Z,4.70
2023-03-22T08:42:49.562Z,4.13
2023-03-22T08:45:16.342Z,6.20
2023-03-22T08:47:44.027Z,4.76
2023-03-22T08:50:10.733Z,4.71
2023-03-22T08:52:37.417Z,3.80
2023-03-22T08:55:04.285Z,4.33
2023-03-22T08:57:33.285Z,4.45
2023-03-22T09:00:00.853Z,5.24
2023-03-22T09:02:27.599Z,4.34
2023-03-22T09:04:55.069Z,4.34
2023-03-22T09:07:21.781Z,4.05
2023-03-22T09:09:48.617Z,3.84
2023-03-22T09:12:15.084Z,4.21
2023-03-22T09:14:41.979Z,4.84
2023-03-22T09:17:08.549Z,4.41
2023-03-22T09:19:35.916Z,3.89
2023-03-22T09:22:05.580Z,4.02
2023-03-22T09:24:32.390Z,3.47
2023-03-22T09:26:59.701Z,3.33
2023-03-22T09:29:27.202Z,3.82
2023-03-22T09:32:00.952Z,4.97
2023-03-22T09:34:27.876Z,3.38
2023-03-22T09:36:57.336Z,3.76
2023-03-22T09:39:24.166Z,3.48
2023-03-22T09:41:50.808Z,3.27
2023-03-22T09:44:17.760Z,3.25
2023-03-22T09:46:45.187Z,3.30
2023-03-22T09:49:14.489Z,3.14
2023-03-22T09:51:41.434Z,2.91
2023-03-22T09:54:10.451Z,3.18
2023-03-22T09:56:37.261Z,3.28
2023-03-22T09:59:04.028Z,2.83
2023-03-22T10:01:30.869Z,2.52
2023-03-22T10:03:58.018Z,2.56
2023-03-22T10:06:25.037Z,2.87
2023-03-22T10:08:53.343Z,3.04
2023-03-22T10:11:22.330Z,2.96
2023-03-22T10:13:50.963Z,2.87
2023-03-22T10:16:17.901Z,3.02
2023-03-22T10:18:44.811Z,3.12
2023-03-22T10:21:12.387Z,3.08
2023-03-22T10:23:39.030Z,2.95
2023-03-22T10:26:08.286Z,3.10
2023-03-22T10:28:34.902Z,2.83
2023-03-22T10:31:03.697Z,3.08
2023-03-22T10:33:31.808Z,3.27
2023-03-22T10:35:59.415Z,2.95
2023-03-22T10:38:26.268Z,3.15
2023-03-22T10:40:55.342Z,2.81
2023-03-22T10:43:24.191Z,2.80
2023-03-22T10:45:51.669Z,2.68
2023-03-22T10:48:19.472Z,2.57
2023-03-22T10:50:48.196Z,2.58
2023-03-22T10:53:17.764Z,2.40
2023-03-22T10:55:44.344Z,2.89
2023-03-22T10:58:11.192Z,2.93
2023-03-22T11:00:41.202Z,3.09
2023-03-22T11:03:10.253Z,2.38
2023-03-22T11:05:37.916Z,2.09
2023-03-22T11:08:06.831Z,1.81
2023-03-22T11:10:33.965Z,2.03
2023-03-22T11:13:00.863Z,2.17
2023-03-22T11:15:27.719Z,2.43
2023-03-22T11:17:54.762Z,2.84
2023-03-22T11:20:24.546Z,2.15
2023-03-22T11:22:52.019Z,1.88
2023-03-22T11:25:18.856Z,2.17
2023-03-22T11:27:45.532Z,3.11
2023-03-22T11:30:12.431Z,3.03
2023-03-22T11:32:44.589Z,2.79
2023-03-22T11:35:11.512Z,2.86
2023-03-22T11:37:38.108Z,2.76
2023-03-22T11:40:05.173Z,2.95
2023-03-22T11:42:33.365Z,3.22
2023-03-22T11:45:02.505Z,3.40
2023-03-22T11:47:29.326Z,3.61
2023-03-22T11:49:56.595Z,3.64
2023-03-22T11:52:23.244Z,3.16
2023-03-22T11:54:52.932Z,3.32
2023-03-22T11:57:19.846Z,2.84
2023-03-22T11:59:46.387Z,3.23
2023-03-22T12:02:13.149Z,3.01
2023-03-22T12:04:41.016Z,3.13
2023-03-22T12:07:07.676Z,3.18
2023-03-22T12:09:35.377Z,6.11
2023-03-22T12:12:01.957Z,3.82
2023-03-22T12:14:28.926Z,6.24
2023-03-22T12:16:56.429Z,6.64
2023-03-22T12:19:25.408Z,5.74
2023-03-22T12:21:54.343Z,5.09
2023-03-22T12:24:21.185Z,4.08
2023-03-22T12:26:47.798Z,3.32
2023-03-22T12:29:14.668Z,2.24
2023-03-22T12:31:41.722Z,2.05
2023-03-22T12:34:08.631Z,2.12
2023-03-22T12:36:37.635Z,2.20
2023-03-22T12:39:04.448Z,2.12
2023-03-22T12:41:32.588Z,2.39
2023-03-22T12:47:05.735Z,1.68
2023-03-22T12:52:19.973Z,1.84
2023-03-22T12:54:46.983Z,1.94
2023-03-22T12:57:13.616Z,1.98
2023-03-22T12:59:40.729Z,2.10
2023-03-22T13:02:14.791Z,2.13
2023-03-22T13:04:41.618Z,2.31
2023-03-22T13:07:08.683Z,2.14
2023-03-22T13:09:35.619Z,1.87
2023-03-22T13:12:03.240Z,2.24
2023-03-22T13:14:30.597Z,2.11
2023-03-22T13:16:57.593Z,2.29
2023-03-22T13:19:24.446Z,2.12
2023-03-22T13:21:51.034Z,2.01
2023-03-22T13:24:17.905Z,2.12
2023-03-22T13:26:46.955Z,2.04
2023-03-22T13:29:13.986Z,2.32
2023-03-22T13:31:40.605Z,2.29
2023-03-22T13:34:07.599Z,2.27
2023-03-22T13:36:36.565Z,2.24
2023-03-22T13:39:04.229Z,2.48
2023-03-22T13:44:22.932Z,2.74
2023-03-22T13:46:49.512Z,2.94
2023-03-22T13:49:16.157Z,2.90
2023-03-22T13:51:50.313Z,2.75
2023-03-22T13:54:17.580Z,2.75
2023-03-22T13:56:45.251Z,2.54
2023-03-22T13:59:12.705Z,2.19
2023-03-22T14:01:40.764Z,2.47
2023-03-22T14:04:09.444Z,2.58
2023-03-22T14:06:38.625Z,2.12
2023-03-22T14:09:05.632Z,2.09
2023-03-22T14:11:32.324Z,2.07
2023-03-22T14:13:59.253Z,2.60
2023-03-22T14:16:27.198Z,2.43
2023-03-22T14:18:53.814Z,2.33
2023-03-22T14:21:21.514Z,2.12
